createdAt,value
2018-10-15T00:00:34.060Z,99.63
2018-10-15T00:03:03.452Z,99.13
2018-10-15T00:05:32.872Z,100.00
2018-10-15T00:08:02.379Z,100.00
2018-10-15T00:10:31.799Z,100.00
2018-10-15T00:13:01.409Z,100.00
2018-10-15T00:15:31.436Z,100.00
2018-10-15T00:18:00.837Z,99.80
2018-10-15T00:20:30.265Z,99.62
2018-10-15T00:22:59.664Z,98.89
2018-10-15T00:25:29.066Z,98.98
2018-10-15T00:27:58.464Z,99.37
2018-10-15T00:30:27.895Z,99.18
2018-10-15T00:32:57.319Z,98.73
2018-10-15T00:35:26.718Z,98.17
2018-10-15T00:37:56.121Z,98.61
2018-10-15T00:40:25.531Z,99.21
2018-10-15T00:42:54.984Z,99.37
2018-10-15T00:45:24.392Z,98.87
2018-10-15T00:47:53.784Z,99.09
2018-10-15T00:50:23.183Z,98.64
2018-10-15T00:52:52.587Z,98.54
2018-10-15T00:55:21.987Z,99.12
2018-10-15T00:57:51.384Z,99.09
2018-10-15T01:00:20.793Z,99.73
2018-10-15T01:02:50.180Z,99.95
2018-10-15T01:05:19.618Z,100.00
2018-10-15T01:07:49.032Z,100.00
2018-10-15T01:10:18.575Z,100.00
2018-10-15T01:12:47.987Z,100.00
2018-10-15T01:15:17.380Z,100.00
2018-10-15T01:17:46.780Z,100.00
2018-10-15T01:20:16.232Z,100.00
2018-10-15T01:22:45.630Z,100.00
2018-10-15T01:25:15.025Z,100.00
2018-10-15T01:27:44.431Z,100.00
2018-10-15T01:30:13.872Z,100.00
2018-10-15T01:32:43.304Z,100.00
2018-10-15T01:35:12.720Z,100.00
2018-10-15T01:37:42.108Z,100.00
2018-10-15T01:40:11.503Z,100.00
2018-10-15T01:42:40.951Z,100.00
2018-10-15T01:45:10.353Z,100.00
2018-10-15T01:47:39.779Z,100.00
2018-10-15T01:50:09.247Z,100.00
2018-10-15T01:52:38.976Z,100.00
2018-10-15T01:55:08.908Z,100.00
2018-10-15T01:57:38.491Z,100.00
2018-10-15T02:00:09.331Z,100.00
2018-10-15T02:02:39.240Z,100.00
2018-10-15T02:05:09.584Z,100.00
2018-10-15T02:07:39.050Z,100.00
2018-10-15T02:10:08.884Z,100.00
2018-10-15T02:12:38.288Z,100.00
2018-10-15T02:15:07.768Z,100.00
2018-10-15T02:17:37.212Z,100.00
2018-10-15T02:20:09.212Z,100.00
2018-10-15T02:22:38.638Z,100.00
2018-10-15T02:25:08.144Z,100.00
2018-10-15T02:27:37.659Z,100.00
2018-10-15T02:30:08.644Z,100.00
2018-10-15T02:32:38.052Z,100.00
2018-10-15T02:35:07.744Z,100.00
2018-10-15T02:37:39.255Z,100.00
2018-10-15T02:40:09.303Z,100.00
2018-10-15T02:42:39.035Z,100.00
2018-10-15T02:45:09.320Z,100.00
2018-10-15T02:47:39.166Z,100.00
2018-10-15T02:50:09.796Z,99.85
2018-10-15T02:52:39.267Z,99.47
2018-10-15T02:55:08.792Z,100.00
2018-10-15T02:57:38.192Z,99.84
2018-10-15T03:00:11.370Z,99.44
2018-10-15T03:02:40.981Z,99.07
2018-10-15T03:05:11.828Z,98.52
2018-10-15T03:07:41.752Z,98.71
2018-10-15T03:10:11.145Z,98.63
2018-10-15T03:12:40.544Z,98.22
2018-10-15T03:15:10.877Z,98.54
2018-10-15T03:17:40.291Z,98.63
2018-10-15T03:20:11.166Z,98.92
2018-10-15T03:22:41.248Z,98.46
2018-10-15T03:25:11.471Z,98.72
2018-10-15T03:27:41.268Z,99.72
2018-10-15T03:30:11.822Z,99.47
2018-10-15T03:32:41.733Z,99.23
2018-10-15T03:35:11.836Z,99.18
2018-10-15T03:37:41.292Z,99.58
2018-10-15T03:40:10.768Z,99.59
2018-10-15T03:42:40.211Z,99.80
2018-10-15T03:45:09.679Z,100.00
2018-10-15T03:47:39.068Z,100.00
2018-10-15T03:50:08.893Z,100.00
2018-10-15T03:52:38.294Z,100.00
2018-10-15T03:55:07.714Z,100.00
2018-10-15T03:57:37.172Z,100.00
2018-10-15T04:00:07.611Z,100.00
2018-10-15T04:02:37.198Z,100.00
2018-10-15T04:05:06.560Z,100.00
2018-10-15T04:07:35.970Z,100.00
2018-10-15T04:10:06.060Z,100.00
2018-10-15T04:12:35.506Z,99.61
2018-10-15T04:15:06.348Z,99.65
2018-10-15T04:17:35.798Z,100.00
2018-10-15T04:20:05.973Z,100.00
2018-10-15T04:22:40.444Z,100.00
2018-10-15T04:25:09.852Z,100.00
2018-10-15T04:27:39.332Z,100.00
2018-10-15T04:30:08.769Z,100.00
2018-10-15T04:32:38.172Z,100.00
2018-10-15T04:35:07.871Z,100.00
2018-10-15T04:37:37.714Z,100.00
2018-10-15T04:40:07.896Z,100.00
2018-10-15T04:42:37.360Z,100.00
2018-10-15T04:45:08.879Z,100.00
2018-10-15T04:47:38.451Z,100.00
2018-10-15T04:50:08.448Z,100.00
2018-10-15T04:52:37.833Z,100.00
2018-10-15T04:55:08.027Z,100.00
2018-10-15T04:57:38.024Z,100.00
2018-10-15T05:00:11.454Z,100.00
2018-10-15T05:02:40.919Z,100.00
2018-10-15T05:05:12.417Z,100.00
2018-10-15T05:07:42.056Z,100.00
2018-10-15T05:10:11.691Z,100.00
2018-10-15T05:12:41.300Z,100.00
2018-10-15T05:15:12.012Z,100.00
2018-10-15T05:17:41.536Z,100.00
2018-10-15T05:20:12.381Z,100.00
2018-10-15T05:22:41.975Z,100.00
2018-10-15T05:25:11.439Z,100.00
2018-10-15T05:27:40.844Z,100.00
2018-10-15T05:30:10.573Z,100.00
2018-10-15T05:32:39.921Z,100.00
2018-10-15T05:35:11.547Z,100.00
2018-10-15T05:37:41.649Z,100.00
2018-10-15T05:40:11.164Z,99.38
2018-10-15T05:42:40.884Z,100.00
2018-10-15T05:45:11.922Z,100.00
2018-10-15T05:47:41.539Z,100.00
2018-10-15T05:50:12.317Z,100.00
2018-10-15T05:52:42.388Z,100.00
2018-10-15T05:55:12.708Z,100.00
2018-10-15T05:57:42.186Z,100.00
2018-10-15T06:00:14.068Z,100.00
2018-10-15T06:02:43.587Z,100.00
2018-10-15T06:05:12.989Z,100.00
2018-10-15T06:07:42.379Z,100.00
2018-10-15T06:10:15.379Z,100.00
2018-10-15T06:12:46.493Z,100.00
2018-10-15T06:15:15.940Z,100.00
2018-10-15T06:17:45.420Z,100.00
2018-10-15T06:20:14.924Z,100.00
2018-10-15T06:22:44.417Z,100.00
2018-10-15T06:25:15.159Z,100.00
2018-10-15T06:27:45.093Z,100.00
2018-10-15T06:30:16.740Z,100.00
2018-10-15T06:32:46.083Z,100.00
2018-10-15T06:35:15.517Z,100.00
2018-10-15T06:37:44.907Z,100.00
2018-10-15T06:40:14.339Z,100.00
2018-10-15T06:42:43.728Z,100.00
2018-10-15T06:45:14.232Z,100.00
2018-10-15T06:47:43.591Z,100.00
2018-10-15T06:50:13.412Z,100.00
2018-10-15T06:52:42.827Z,100.00
2018-10-15T06:55:12.283Z,100.00
2018-10-15T06:57:41.687Z,100.00
2018-10-15T07:00:12.485Z,99.10
2018-10-15T07:02:41.876Z,99.22
2018-10-15T07:05:11.375Z,99.42
2018-10-15T07:07:40.834Z,98.83
2018-10-15T07:10:10.724Z,98.80
2018-10-15T07:12:40.143Z,98.90
2018-10-15T07:15:11.120Z,98.74
2018-10-15T07:17:40.704Z,98.02
2018-10-15T07:20:10.189Z,98.40
2018-10-15T07:22:39.585Z,98.35
2018-10-15T07:25:24.407Z,97.49
2018-10-15T07:27:54.131Z,97.10
2018-10-15T07:30:23.921Z,97.04
2018-10-15T07:32:53.252Z,96.32
2018-10-15T07:35:22.679Z,96.63
2018-10-15T07:37:52.071Z,96.59
2018-10-15T07:40:21.520Z,95.73
2018-10-15T07:42:50.892Z,95.93
2018-10-15T07:45:20.376Z,95.53
2018-10-15T07:47:49.799Z,95.38
2018-10-15T07:50:19.321Z,95.32
2018-10-15T07:52:48.703Z,94.78
2018-10-15T07:55:18.124Z,94.76
2018-10-15T07:57:47.530Z,94.36
2018-10-15T08:00:20.600Z,94.82
2018-10-15T08:02:50.394Z,95.43
2018-10-15T08:05:19.913Z,94.50
2018-10-15T08:07:49.803Z,95.14
2018-10-15T08:10:19.336Z,95.21
2018-10-15T08:12:49.262Z,94.55
2018-10-15T08:15:19.655Z,94.55
2018-10-15T08:17:49.070Z,94.44
2018-10-15T08:20:19.451Z,93.77
2018-10-15T08:22:49.473Z,93.85
2018-10-15T08:25:18.897Z,93.52
2018-10-15T08:27:48.411Z,93.50
2018-10-15T08:30:19.018Z,92.96
2018-10-15T08:32:48.599Z,92.46
2018-10-15T08:35:18.105Z,92.17
2018-10-15T08:37:47.500Z,91.86
2018-10-15T08:40:18.292Z,92.58
2018-10-15T08:42:52.599Z,92.57
2018-10-15T08:45:23.293Z,92.14
2018-10-15T08:47:53.207Z,91.78
2018-10-15T08:50:22.747Z,91.56
2018-10-15T08:52:52.620Z,91.25
2018-10-15T08:55:22.059Z,91.96
2018-10-15T08:57:51.575Z,91.07
2018-10-15T09:00:24.653Z,92.52
2018-10-15T09:02:54.264Z,91.13
2018-10-15T09:05:23.576Z,90.40
2018-10-15T09:07:53.142Z,89.47
2018-10-15T09:10:22.679Z,88.83
2018-10-15T09:12:52.142Z,88.14
2018-10-15T09:15:23.224Z,87.41
2018-10-15T09:17:52.675Z,87.55
2018-10-15T09:20:22.308Z,87.22
2018-10-15T09:22:51.707Z,87.59
2018-10-15T09:25:21.328Z,88.68
2018-10-15T09:27:50.813Z,87.91
2018-10-15T09:30:21.588Z,86.69
2018-10-15T09:32:51.033Z,86.90
2018-10-15T09:35:20.883Z,86.82
2018-10-15T09:37:50.380Z,86.00
2018-10-15T09:40:21.253Z,85.84
2018-10-15T09:42:50.889Z,85.52
2018-10-15T09:45:21.160Z,85.28
2018-10-15T09:47:51.806Z,84.89
2018-10-15T09:50:21.982Z,83.89
2018-10-15T09:52:51.519Z,84.50
2018-10-15T09:55:20.931Z,83.54
2018-10-15T09:57:50.478Z,83.44
2018-10-15T10:00:25.228Z,81.14
2018-10-15T10:02:55.588Z,81.29
2018-10-15T10:05:25.028Z,79.81
2018-10-15T10:07:54.584Z,78.47
2018-10-15T10:10:23.952Z,77.15
2018-10-15T10:12:53.431Z,77.00
2018-10-15T10:15:22.800Z,74.71
2018-10-15T10:17:52.408Z,73.83
2018-10-15T10:20:21.678Z,73.18
2018-10-15T10:22:51.144Z,71.46
2018-10-15T10:25:21.035Z,70.77
2018-10-15T10:27:50.473Z,70.19
2018-10-15T10:30:19.884Z,68.59
2018-10-15T10:32:49.292Z,68.44
2018-10-15T10:35:57.117Z,66.99
2018-10-15T10:38:43.302Z,66.91
2018-10-15T10:41:12.799Z,67.81
2018-10-15T10:43:42.263Z,66.14
2018-10-15T10:46:11.786Z,63.76
2018-10-15T10:48:41.151Z,64.65
2018-10-15T10:51:10.567Z,65.46
2018-10-15T10:53:40.047Z,62.49
2018-10-15T10:56:09.496Z,65.41
2018-10-15T10:58:39.135Z,61.42
2018-10-15T11:01:09.112Z,62.35
2018-10-15T11:03:39.104Z,62.51
2018-10-15T11:06:08.535Z,61.17
2018-10-15T11:08:38.006Z,61.39
2018-10-15T11:11:07.740Z,59.52
2018-10-15T11:13:37.184Z,60.45
2018-10-15T11:16:07.321Z,60.52
2018-10-15T11:18:37.126Z,58.56
2018-10-15T11:21:06.801Z,58.15
2018-10-15T11:23:36.225Z,59.38
2018-10-15T11:26:05.880Z,58.19
2018-10-15T11:28:35.311Z,55.69
2018-10-15T11:31:04.782Z,55.65
2018-10-15T11:33:34.220Z,53.07
2018-10-15T11:36:03.688Z,53.58
2018-10-15T11:38:33.092Z,53.50
2018-10-15T11:41:02.491Z,51.74
2018-10-15T11:43:31.944Z,51.72
2018-10-15T11:46:01.368Z,51.15
2018-10-15T11:48:30.776Z,50.02
2018-10-15T11:51:00.197Z,51.10
2018-10-15T11:53:29.673Z,49.95
2018-10-15T11:55:59.020Z,50.15
2018-10-15T11:58:28.417Z,48.69
2018-10-15T12:00:57.916Z,48.88
2018-10-15T12:03:27.400Z,47.61
2018-10-15T12:05:56.827Z,46.52
2018-10-15T12:08:26.243Z,46.05
2018-10-15T12:10:55.784Z,45.08
2018-10-15T12:13:25.181Z,46.24
2018-10-15T12:15:54.591Z,45.02
2018-10-15T12:18:24.020Z,45.56
2018-10-15T12:20:53.408Z,44.43
2018-10-15T12:23:22.799Z,44.08
2018-10-15T12:25:52.228Z,42.59
2018-10-15T12:28:21.628Z,42.74
2018-10-15T12:30:51.103Z,42.78
2018-10-15T12:33:20.519Z,43.42
2018-10-15T12:35:49.919Z,43.98
2018-10-15T12:38:19.343Z,44.09
2018-10-15T12:40:48.756Z,43.58
2018-10-15T12:43:18.193Z,42.27
2018-10-15T12:45:48.534Z,44.02
2018-10-15T12:48:18.635Z,41.15
2018-10-15T12:50:48.055Z,41.04
2018-10-15T12:53:18.227Z,41.04
2018-10-15T12:55:47.621Z,41.14
2018-10-15T12:58:17.033Z,41.95
2018-10-15T13:00:46.512Z,41.81
2018-10-15T13:03:15.907Z,39.41
2018-10-15T13:05:45.310Z,40.85
2018-10-15T13:08:14.732Z,41.85
2018-10-15T13:10:44.119Z,40.26
2018-10-15T13:13:13.536Z,39.86
2018-10-15T13:15:42.933Z,40.39
2018-10-15T13:18:12.331Z,38.08
2018-10-15T13:20:41.752Z,37.70
2018-10-15T13:23:11.139Z,37.25
2018-10-15T13:25:40.541Z,36.18
2018-10-15T13:28:09.967Z,37.26
2018-10-15T13:30:39.427Z,37.51
2018-10-15T13:33:08.837Z,35.48
2018-10-15T13:35:38.233Z,36.39
2018-10-15T13:38:07.684Z,35.90
2018-10-15T13:40:37.132Z,34.55
2018-10-15T13:43:06.709Z,34.17
2018-10-15T13:45:36.216Z,34.21
2018-10-15T13:48:05.799Z,35.79
2018-10-15T13:50:35.199Z,34.42
2018-10-15T13:53:05.244Z,35.97
2018-10-15T13:55:34.636Z,34.94
2018-10-15T13:58:04.063Z,35.15
2018-10-15T14:00:40.265Z,32.45
2018-10-15T14:03:10.124Z,33.05
2018-10-15T14:05:39.535Z,33.21
2018-10-15T14:08:09.097Z,32.79
2018-10-15T14:10:38.671Z,32.00
2018-10-15T14:13:08.261Z,32.95
2018-10-15T14:15:37.811Z,31.13
2018-10-15T14:18:08.190Z,31.95
2018-10-15T14:20:37.785Z,29.67
2018-10-15T14:23:07.465Z,30.28
2018-10-15T14:25:37.028Z,30.79
2018-10-15T14:28:06.701Z,30.84
2018-10-15T14:30:36.302Z,30.13
2018-10-15T14:33:06.384Z,29.08
2018-10-15T14:35:35.940Z,29.03
2018-10-15T14:38:05.684Z,28.34
2018-10-15T14:40:35.344Z,29.09
2018-10-15T14:43:05.398Z,30.29
2018-10-15T14:45:34.994Z,29.34
2018-10-15T14:48:04.611Z,28.78
2018-10-15T14:50:34.231Z,28.28
2018-10-15T14:53:03.783Z,29.87
2018-10-15T14:55:33.535Z,28.68
2018-10-15T14:58:03.148Z,29.41
2018-10-15T15:00:33.701Z,31.09
2018-10-15T15:03:03.388Z,31.28
2018-10-15T15:05:33.405Z,30.67
2018-10-15T15:08:03.336Z,30.73
2018-10-15T15:10:49.763Z,30.75
2018-10-15T15:13:36.372Z,30.66
2018-10-15T15:16:05.912Z,30.67
2018-10-15T15:18:35.560Z,29.11
2018-10-15T15:21:05.327Z,30.30
2018-10-15T15:23:34.909Z,30.77
2018-10-15T15:26:04.593Z,32.46
2018-10-15T15:28:34.213Z,32.52
2018-10-15T15:31:03.876Z,32.75
2018-10-15T15:33:33.497Z,33.21
2018-10-15T15:36:03.194Z,35.35
2018-10-15T15:38:32.836Z,35.88
2018-10-15T15:41:02.516Z,37.65
2018-10-15T15:43:32.134Z,36.99
2018-10-15T15:46:01.711Z,38.89
2018-10-15T15:48:31.304Z,40.32
2018-10-15T15:51:00.934Z,42.26
2018-10-15T15:53:30.614Z,42.38
2018-10-15T15:56:00.231Z,42.47
2018-10-15T15:58:29.849Z,43.13
2018-10-15T16:00:59.407Z,44.30
2018-10-15T16:03:29.281Z,48.62
2018-10-15T16:05:58.932Z,49.30
2018-10-15T16:08:28.570Z,50.39
2018-10-15T16:10:58.157Z,51.64
2018-10-15T16:13:27.453Z,54.26
2018-10-15T16:15:56.881Z,55.21
2018-10-15T16:18:26.300Z,56.00
2018-10-15T16:20:55.786Z,57.41
2018-10-15T16:23:25.333Z,56.71
2018-10-15T16:25:54.759Z,57.97
2018-10-15T16:28:24.386Z,59.14
2018-10-15T16:30:53.886Z,60.20
2018-10-15T16:33:23.284Z,59.65
2018-10-15T16:35:52.753Z,60.96
2018-10-15T16:38:22.189Z,60.40
2018-10-15T16:40:51.593Z,60.52
2018-10-15T16:43:20.996Z,61.38
2018-10-15T16:45:50.408Z,61.71
2018-10-15T16:48:19.818Z,61.31
2018-10-15T16:50:49.228Z,60.78
2018-10-15T16:53:18.648Z,62.39
2018-10-15T16:55:48.116Z,62.35
2018-10-15T16:58:17.540Z,63.56
2018-10-15T17:00:46.932Z,64.15
2018-10-15T17:03:16.348Z,65.08
2018-10-15T17:05:45.823Z,65.64
2018-10-15T17:08:15.220Z,65.83
2018-10-15T17:10:44.648Z,65.81
2018-10-15T17:13:14.040Z,66.00
2018-10-15T17:15:43.496Z,67.17
2018-10-15T17:18:12.915Z,67.66
2018-10-15T17:20:42.308Z,67.94
2018-10-15T17:23:11.741Z,68.27
2018-10-15T17:25:41.157Z,68.57
2018-10-15T17:28:10.551Z,68.87
2018-10-15T17:30:39.951Z,70.03
2018-10-15T17:33:09.371Z,71.32
2018-10-15T17:35:38.775Z,71.79
2018-10-15T17:38:08.288Z,71.91
2018-10-15T17:40:37.705Z,72.13
2018-10-15T17:43:07.242Z,73.22
2018-10-15T17:45:36.680Z,73.33
2018-10-15T17:48:06.194Z,72.29
2018-10-15T17:50:35.692Z,72.57
2018-10-15T17:53:05.278Z,72.69
2018-10-15T17:55:35.245Z,74.52
2018-10-15T17:58:05.040Z,75.59
2018-10-15T18:00:36.503Z,74.70
2018-10-15T18:03:07.262Z,74.42
2018-10-15T18:05:37.684Z,75.89
2018-10-15T18:08:07.516Z,75.77
2018-10-15T18:10:38.398Z,76.21
2018-10-15T18:13:07.968Z,75.99
2018-10-15T18:15:37.432Z,76.48
2018-10-15T18:18:07.057Z,77.45
2018-10-15T18:20:37.624Z,77.84
2018-10-15T18:23:07.521Z,78.31
2018-10-15T18:25:37.913Z,77.94
2018-10-15T18:28:08.246Z,78.19
2018-10-15T18:30:38.932Z,78.42
2018-10-15T18:33:10.856Z,78.25
2018-10-15T18:35:43.277Z,78.02
2018-10-15T18:38:14.291Z,77.96
2018-10-15T18:40:44.787Z,78.18
2018-10-15T18:43:15.797Z,78.68
2018-10-15T18:45:48.165Z,79.44
2018-10-15T18:48:19.945Z,80.32
2018-10-15T18:50:52.727Z,80.08
2018-10-15T18:53:25.177Z,79.73
2018-10-15T18:55:57.893Z,80.70
2018-10-15T18:58:30.517Z,80.17
2018-10-15T19:01:02.999Z,80.41
2018-10-15T19:03:35.418Z,81.00
2018-10-15T19:06:08.115Z,81.34
2018-10-15T19:08:40.969Z,81.98
2018-10-15T19:11:13.804Z,81.79
2018-10-15T19:13:46.368Z,82.38
2018-10-15T19:16:19.096Z,82.79
2018-10-15T19:18:51.775Z,82.29
2018-10-15T19:21:24.568Z,83.33
2018-10-15T19:23:57.016Z,84.41
2018-10-15T19:26:29.462Z,83.96
2018-10-15T19:29:02.587Z,83.88
2018-10-15T19:31:35.334Z,84.98
2018-10-15T19:34:07.705Z,84.95
2018-10-15T19:36:40.332Z,84.32
2018-10-15T19:39:15.161Z,84.89
2018-10-15T19:41:47.760Z,84.07
2018-10-15T19:44:20.251Z,84.93
2018-10-15T19:46:52.773Z,85.40
2018-10-15T19:49:25.539Z,85.75
2018-10-15T19:51:58.215Z,85.60
2018-10-15T19:54:30.873Z,85.57
2018-10-15T19:57:03.488Z,86.11
2018-10-15T19:59:35.896Z,85.66
2018-10-15T20:02:08.686Z,85.66
2018-10-15T20:04:41.354Z,86.26
2018-10-15T20:07:13.898Z,86.52
2018-10-15T20:09:46.296Z,87.14
2018-10-15T20:12:18.847Z,87.35
2018-10-15T20:14:51.254Z,87.26
2018-10-15T20:17:23.713Z,87.00
2018-10-15T20:19:56.266Z,86.97
2018-10-15T20:22:35.221Z,87.25
2018-10-15T20:25:08.742Z,87.16
2018-10-15T20:27:42.057Z,87.31
2018-10-15T20:30:14.938Z,86.88
2018-10-15T20:32:48.176Z,87.98
2018-10-15T20:35:19.064Z,88.68
2018-10-15T20:37:49.570Z,90.09
2018-10-15T20:40:20.073Z,90.85
2018-10-15T20:42:50.162Z,89.70
2018-10-15T20:45:20.217Z,89.94
2018-10-15T20:47:50.626Z,89.71
2018-10-15T20:50:20.110Z,89.29
2018-10-15T20:52:49.555Z,89.80
2018-10-15T20:55:18.968Z,90.77
2018-10-15T20:57:48.545Z,90.59
2018-10-15T21:00:17.848Z,90.67
2018-10-15T21:02:47.289Z,90.94
2018-10-15T21:05:16.730Z,93.30
2018-10-15T21:07:46.173Z,92.34
2018-10-15T21:10:15.704Z,91.68
2018-10-15T21:12:45.123Z,92.16
2018-10-15T21:15:14.534Z,94.18
2018-10-15T21:17:43.980Z,93.81
2018-10-15T21:20:13.428Z,94.35
2018-10-15T21:22:42.891Z,94.91
2018-10-15T21:25:12.607Z,95.47
2018-10-15T21:27:42.028Z,95.01
2018-10-15T21:30:11.793Z,94.10
2018-10-15T21:32:41.204Z,93.26
2018-10-15T21:35:11.257Z,92.59
2018-10-15T21:37:40.696Z,92.21
2018-10-15T21:40:10.115Z,92.45
2018-10-15T21:42:39.670Z,92.06
2018-10-15T21:45:09.728Z,92.28
2018-10-15T21:47:39.436Z,92.10
2018-10-15T21:50:10.827Z,92.87
2018-10-15T21:52:40.491Z,92.90
2018-10-15T21:55:11.492Z,92.34
2018-10-15T21:57:41.124Z,92.86
2018-10-15T22:00:14.226Z,94.31
2018-10-15T22:02:44.197Z,95.21
2018-10-15T22:05:13.620Z,95.35
2018-10-15T22:07:43.061Z,95.47
2018-10-15T22:10:17.700Z,95.35
2018-10-15T22:12:47.100Z,94.93
2018-10-15T22:15:16.491Z,94.58
2018-10-15T22:17:45.943Z,95.33
2018-10-15T22:20:15.371Z,95.15
2018-10-15T22:22:44.840Z,96.44
2018-10-15T22:25:14.322Z,97.28
2018-10-15T22:27:43.743Z,98.35
2018-10-15T22:30:13.784Z,99.40
2018-10-15T22:32:43.263Z,99.25
2018-10-15T22:35:12.673Z,98.12
2018-10-15T22:37:42.088Z,97.46
2018-10-15T22:40:11.723Z,97.06
2018-10-15T22:42:41.392Z,96.06
2018-10-15T22:45:12.515Z,96.30
2018-10-15T22:47:42.875Z,96.14
2018-10-15T22:50:12.493Z,96.22
2018-10-15T22:52:41.900Z,95.91
2018-10-15T22:55:11.408Z,96.37
2018-10-15T22:57:40.837Z,95.74
2018-10-15T23:00:15.789Z,95.63
2018-10-15T23:02:45.167Z,96.55
2018-10-15T23:05:14.720Z,96.46
2018-10-15T23:07:44.148Z,96.71
2018-10-15T23:10:18.777Z,97.30
2018-10-15T23:12:48.383Z,97.41
2018-10-15T23:15:17.883Z,97.50
2018-10-15T23:17:47.264Z,96.97
2018-10-15T23:20:17.737Z,97.26
2018-10-15T23:22:47.152Z,97.06
2018-10-15T23:25:16.532Z,97.42
2018-10-15T23:27:45.983Z,97.50
2018-10-15T23:30:15.375Z,98.43
2018-10-15T23:32:44.804Z,97.90
2018-10-15T23:35:14.211Z,98.03
2018-10-15T23:37:43.833Z,98.04
2018-10-15T23:40:14.067Z,97.65
2018-10-15T23:42:43.486Z,97.26
2018-10-15T23:45:13.496Z,96.88
2018-10-15T23:47:43.059Z,96.63
2018-10-15T23:50:14.329Z,96.97
2018-10-15T23:52:43.859Z,97.29
2018-10-15T23:55:13.811Z,97.22
2018-10-15T23:57:43.275Z,96.82
